Time;durP1;ratioP1;P1;durP2;ratioP2;P2;SDS_P1;SDS_P2;PMS_P1;PMS_P2;Temp;Humidity;BMP_temperature;BMP_pressure;BME280_temperature;BME280_humidity;BME280_pressure;Samples;Min_cycle;Max_cycle;Signal;HPM_P1;HPM_P2
2024/02/02 00:00:01;;;;;;;14.07;4.35;;;6.80;99.90;;;;;;5042574;28;20039;-84
2024/02/02 00:02:26;;;;;;;12.48;4.32;;;6.70;99.90;;;;;;5060237;28;20025;-85
2024/02/02 00:04:52;;;;;;;19.38;4.88;;;6.80;99.90;;;;;;5077383;28;20021;-84
2024/02/02 00:07:18;;;;;;;14.65;4.82;;;6.80;99.90;;;;;;5042456;28;20438;-84
2024/02/02 00:09:45;;;;;;;12.93;4.15;;;6.80;99.90;;;;;;5059192;28;20404;-85
2024/02/02 00:12:11;;;;;;;13.68;5.25;;;6.80;99.90;;;;;;5075419;28;20020;-84
2024/02/02 00:14:40;;;;;;;15.52;4.38;;;6.80;99.90;;;;;;5058790;28;20028;-85
2024/02/02 00:17:06;;;;;;;14.07;4.13;;;6.80;99.90;;;;;;5058774;28;20059;-85
2024/02/02 00:19:32;;;;;;;12.23;4.72;;;6.80;99.90;;;;;;5075225;28;20077;-84
2024/02/02 00:21:59;;;;;;;13.52;4.07;;;6.90;99.90;;;;;;5059021;28;20048;-83
2024/02/02 00:24:24;;;;;;;14.82;5.07;;;6.90;99.90;;;;;;5059015;28;20082;-85
2024/02/02 00:26:50;;;;;;;17.42;4.75;;;6.90;99.90;;;;;;5042393;28;20424;-85
2024/02/02 00:29:17;;;;;;;14.82;4.47;;;6.90;99.90;;;;;;5058583;28;20033;-84
2024/02/02 00:31:42;;;;;;;17.50;4.70;;;6.90;99.90;;;;;;5042609;28;20049;-85
2024/02/02 00:34:08;;;;;;;17.17;4.85;;;6.90;99.90;;;;;;5075590;28;20375;-84
2024/02/02 00:36:34;;;;;;;16.77;4.85;;;6.90;99.90;;;;;;5042095;28;20024;-84
2024/02/02 00:39:00;;;;;;;13.55;5.18;;;6.90;99.90;;;;;;5075043;28;20468;-84
2024/02/02 00:41:26;;;;;;;15.77;5.55;;;6.90;99.90;;;;;;5075313;28;20033;-84
2024/02/02 00:43:52;;;;;;;14.10;5.35;;;6.90;99.90;;;;;;5058835;28;20036;-84
2024/02/02 00:46:17;;;;;;;17.75;5.47;;;6.90;99.90;;;;;;5042071;28;20487;-84
2024/02/02 00:48:43;;;;;;;19.17;5.72;;;6.90;99.90;;;;;;5076218;28;20114;-85
2024/02/02 00:51:09;;;;;;;14.20;5.10;;;6.90;99.90;;;;;;5075299;28;20040;-85
2024/02/02 00:53:35;;;;;;;21.23;5.55;;;6.90;99.90;;;;;;5042292;28;20056;-84
2024/02/02 00:56:00;;;;;;;20.75;5.53;;;6.90;99.90;;;;;;5075634;28;20053;-85
2024/02/02 00:58:27;;;;;;;16.42;5.68;;;6.90;99.90;;;;;;5076755;28;20033;-85
2024/02/02 01:00:53;;;;;;;16.25;5.53;;;6.90;99.90;;;;;;5085775;28;20037;-85
2024/02/02 01:03:19;;;;;;;15.48;5.28;;;6.90;99.90;;;;;;5082344;28;20099;-85
2024/02/02 01:05:44;;;;;;;16.05;4.78;;;6.90;99.90;;;;;;5062663;28;20032;-85
2024/02/02 01:08:10;;;;;;;10.30;4.70;;;6.90;99.90;;;;;;5075962;28;20028;-85
2024/02/02 01:10:36;;;;;;;14.32;5.25;;;6.90;99.90;;;;;;5077037;28;20075;-85
2024/02/02 01:13:05;;;;;;;13.77;4.78;;;6.90;99.90;;;;;;5058148;28;20032;-85
2024/02/02 01:15:31;;;;;;;15.20;4.95;;;7.00;99.90;;;;;;5057975;28;20537;-85
2024/02/02 01:17:57;;;;;;;16.90;5.63;;;7.00;99.90;;;;;;5074261;28;20056;-85
2024/02/02 01:20:23;;;;;;;15.02;5.10;;;7.00;99.90;;;;;;5074382;28;20041;-85
2024/02/02 01:22:55;;;;;;;11.05;4.53;;;7.00;99.90;;;;;;5076394;28;20025;-85
2024/02/02 01:25:21;;;;;;;20.70;6.22;;;7.00;99.90;;;;;;5075235;28;20157;-85
2024/02/02 01:27:46;;;;;;;15.02;5.43;;;7.00;99.90;;;;;;5074233;28;20116;-85
2024/02/02 01:30:12;;;;;;;13.95;4.75;;;7.00;99.90;;;;;;5073896;28;20033;-85
2024/02/02 01:32:38;;;;;;;13.63;4.43;;;7.00;99.90;;;;;;5057803;28;20064;-86
2024/02/02 01:35:04;;;;;;;13.35;4.47;;;7.00;99.90;;;;;;5057852;28;20036;-85
2024/02/02 01:37:30;;;;;;;13.95;4.35;;;7.00;99.90;;;;;;5040948;28;20029;-85
2024/02/02 01:39:56;;;;;;;14.80;4.80;;;7.00;99.90;;;;;;5074784;28;20025;-85
2024/02/02 01:42:22;;;;;;;21.40;4.95;;;7.00;99.90;;;;;;5073677;28;20086;-85
2024/02/02 01:44:49;;;;;;;13.15;4.25;;;7.10;99.90;;;;;;5064279;28;20051;-85
2024/02/02 01:47:15;;;;;;;16.20;4.97;;;7.10;99.90;;;;;;5075742;28;20089;-85
2024/02/02 01:49:41;;;;;;;16.05;4.95;;;7.10;99.90;;;;;;5058590;28;20037;-85
2024/02/02 01:52:07;;;;;;;13.20;4.75;;;7.10;99.90;;;;;;5076494;28;20067;-85
2024/02/02 01:54:34;;;;;;;19.83;4.72;;;7.10;99.90;;;;;;5075258;28;20106;-85
2024/02/02 01:56:59;;;;;;;17.63;4.97;;;7.00;99.90;;;;;;5058401;28;20060;-85
2024/02/02 01:59:25;;;;;;;17.33;5.38;;;7.00;99.90;;;;;;5074079;28;20029;-85
2024/02/02 02:01:51;;;;;;;16.52;5.05;;;7.10;99.90;;;;;;5058253;28;20082;-85
2024/02/02 02:04:17;;;;;;;15.20;5.25;;;7.10;99.90;;;;;;5041546;28;20043;-85
2024/02/02 02:06:43;;;;;;;17.48;5.07;;;7.10;99.90;;;;;;5057667;28;20033;-85
2024/02/02 02:09:09;;;;;;;14.98;5.25;;;7.10;99.90;;;;;;5074164;28;20032;-85
2024/02/02 02:11:35;;;;;;;19.65;5.25;;;7.10;99.90;;;;;;5057367;28;20032;-85
2024/02/02 02:14:01;;;;;;;19.20;5.13;;;7.00;99.90;;;;;;5073970;28;20128;-85
2024/02/02 02:16:27;;;;;;;18.23;5.35;;;7.10;99.90;;;;;;5057626;28;20025;-85
2024/02/02 02:18:53;;;;;;;17.52;4.70;;;7.10;99.90;;;;;;5074006;28;20078;-85
2024/02/02 02:21:28;;;;;;;15.10;4.78;;;7.10;99.90;;;;;;5041512;28;20040;-85
2024/02/02 02:23:55;;;;;;;12.55;4.88;;;7.10;99.90;;;;;;5061209;28;20052;-85
2024/02/02 02:26:21;;;;;;;17.95;5.78;;;7.10;99.90;;;;;;5095787;28;20009;-84
2024/02/02 02:28:47;;;;;;;17.67;5.22;;;7.10;99.90;;;;;;5080853;28;20032;-85
2024/02/02 02:31:17;;;;;;;12.82;5.05;;;7.10;99.90;;;;;;5095539;28;20029;-83
2024/02/02 02:33:44;;;;;;;11.77;5.13;;;7.10;99.90;;;;;;5084390;28;20456;-85
2024/02/02 02:36:12;;;;;;;17.75;5.10;;;7.10;99.90;;;;;;5058347;28;20024;-84
2024/02/02 02:38:38;;;;;;;16.40;5.80;;;7.10;99.90;;;;;;5073100;28;20024;-85
2024/02/02 02:41:18;;;;;;;19.70;6.72;;;7.10;99.90;;;;;;5040270;28;20392;-85
2024/02/02 02:43:50;;;;;;;21.70;6.72;;;7.10;99.90;;;;;;5057477;28;20029;-85
2024/02/02 02:46:16;;;;;;;17.58;6.05;;;7.20;99.90;;;;;;5056444;28;20021;-85
2024/02/02 02:48:42;;;;;;;17.00;5.40;;;7.10;99.90;;;;;;5056472;28;20170;-84
2024/02/02 02:51:07;;;;;;;19.60;5.97;;;7.20;99.90;;;;;;5072958;28;20028;-85
2024/02/02 02:53:33;;;;;;;17.27;6.25;;;7.10;99.90;;;;;;5039476;28;20503;-85
2024/02/02 02:55:59;;;;;;;17.42;6.88;;;7.20;99.90;;;;;;5056689;28;20017;-85
2024/02/02 02:58:25;;;;;;;21.00;6.43;;;7.10;99.90;;;;;;5040060;28;20071;-85
2024/02/02 03:00:53;;;;;;;19.85;6.90;;;7.10;99.90;;;;;;5057439;28;20079;-85
2024/02/02 03:03:19;;;;;;;17.67;7.00;;;7.10;99.90;;;;;;5057760;28;20090;-85
2024/02/02 03:05:46;;;;;;;18.98;6.53;;;7.10;99.90;;;;;;5073581;28;20086;-85
2024/02/02 03:08:12;;;;;;;20.08;6.55;;;7.10;99.90;;;;;;5057294;28;20361;-85
2024/02/02 03:10:38;;;;;;;19.40;6.15;;;7.10;99.90;;;;;;5059863;28;20039;-85
2024/02/02 03:13:04;;;;;;;19.50;7.05;;;7.10;99.90;;;;;;5077125;28;20104;-85
2024/02/02 03:15:31;;;;;;;22.77;7.15;;;7.10;99.90;;;;;;5060324;28;20033;-83
2024/02/02 03:17:57;;;;;;;18.85;7.10;;;7.10;99.90;;;;;;5062389;28;20079;-84
2024/02/02 03:20:26;;;;;;;17.83;7.72;;;7.10;99.90;;;;;;5080086;28;20064;-83
2024/02/02 03:22:53;;;;;;;17.33;7.07;;;7.10;99.90;;;;;;5063951;28;20024;-84
2024/02/02 03:25:25;;;;;;;17.38;6.70;;;7.10;99.90;;;;;;5063544;28;20028;-85
2024/02/02 03:27:50;;;;;;;14.93;6.90;;;7.20;99.90;;;;;;5080249;28;20032;-85
2024/02/02 03:30:16;;;;;;;15.15;7.07;;;7.20;99.90;;;;;;5046705;28;20137;-84
2024/02/02 03:32:44;;;;;;;19.00;7.53;;;7.10;99.90;;;;;;5080052;28;20064;-84
2024/02/02 03:35:10;;;;;;;23.98;8.65;;;7.10;99.90;;;;;;5047525;28;20057;-85
2024/02/02 03:37:36;;;;;;;16.70;7.28;;;7.10;99.90;;;;;;5063858;28;20492;-84
2024/02/02 03:40:04;;;;;;;14.68;7.25;;;7.10;99.90;;;;;;5064052;28;20028;-85
2024/02/02 03:42:29;;;;;;;19.92;7.03;;;7.10;99.90;;;;;;5065226;28;20031;-84
2024/02/02 03:44:56;;;;;;;16.58;7.38;;;7.00;99.90;;;;;;5067935;28;20051;-84
2024/02/02 03:47:25;;;;;;;15.30;6.80;;;7.00;99.90;;;;;;5067103;28;20028;-83
2024/02/02 03:49:50;;;;;;;17.20;7.75;;;7.00;99.90;;;;;;5053318;28;20050;-84
2024/02/02 03:52:16;;;;;;;20.63;8.02;;;7.00;99.90;;;;;;5103904;28;20020;-85
2024/02/02 03:54:42;;;;;;;16.17;8.23;;;7.00;99.90;;;;;;5085563;28;20172;-85
2024/02/02 03:57:07;;;;;;;13.70;7.43;;;7.00;99.90;;;;;;5098754;28;20044;-85
2024/02/02 03:59:33;;;;;;;17.92;7.38;;;7.00;99.90;;;;;;5050820;28;20393;-84
2024/02/02 04:01:59;;;;;;;15.27;6.22;;;7.00;99.90;;;;;;5062798;28;20032;-84
2024/02/02 04:04:24;;;;;;;16.15;6.53;;;6.90;99.90;;;;;;5062788;28;20032;-85
2024/02/02 04:06:50;;;;;;;14.57;7.03;;;6.90;99.90;;;;;;5063354;28;20030;-85
2024/02/02 04:09:16;;;;;;;17.55;7.32;;;6.90;99.90;;;;;;5045837;28;20025;-85
2024/02/02 04:11:41;;;;;;;18.25;8.02;;;6.90;99.90;;;;;;5079245;28;20024;-85
2024/02/02 04:14:07;;;;;;;17.20;7.43;;;6.90;99.90;;;;;;5079234;28;20424;-85
2024/02/02 04:16:33;;;;;;;15.18;7.15;;;6.90;99.90;;;;;;5062209;28;20028;-84
2024/02/02 04:18:59;;;;;;;19.02;8.27;;;6.90;99.90;;;;;;5063677;28;20071;-84
2024/02/02 04:21:24;;;;;;;22.17;8.30;;;6.90;99.90;;;;;;5079387;28;20051;-85
2024/02/02 04:23:50;;;;;;;16.58;7.03;;;6.80;99.90;;;;;;5046175;28;20035;-85
2024/02/02 04:26:16;;;;;;;13.65;6.45;;;6.80;99.90;;;;;;5079048;28;20468;-85
2024/02/02 04:28:42;;;;;;;19.38;6.90;;;6.80;99.90;;;;;;5062240;28;20024;-85
2024/02/02 04:31:07;;;;;;;14.98;6.90;;;6.90;99.90;;;;;;5045914;28;20071;-85
2024/02/02 04:33:33;;;;;;;19.88;7.00;;;6.80;99.90;;;;;;5062695;28;20024;-85
2024/02/02 04:35:59;;;;;;;21.38;7.13;;;6.90;99.90;;;;;;5080417;28;20056;-85
2024/02/02 04:38:24;;;;;;;15.18;7.82;;;6.90;99.90;;;;;;5062483;28;20032;-85
2024/02/02 04:40:50;;;;;;;16.58;7.22;;;6.90;99.90;;;;;;5078794;28;20031;-85
2024/02/02 04:43:16;;;;;;;16.77;7.00;;;6.90;99.90;;;;;;5045255;28;20028;-85
2024/02/02 04:45:42;;;;;;;17.40;7.05;;;6.90;99.90;;;;;;5045541;28;20024;-85
2024/02/02 04:48:07;;;;;;;20.20;6.90;;;6.90;99.90;;;;;;5061963;28;20035;-85
2024/02/02 04:50:34;;;;;;;17.83;7.60;;;6.90;99.90;;;;;;5061906;28;20398;-85
2024/02/02 04:53:00;;;;;;;17.27;6.88;;;6.80;99.90;;;;;;5078426;28;20076;-85
2024/02/02 04:55:26;;;;;;;14.43;6.57;;;6.80;99.90;;;;;;5078762;28;20114;-85
2024/02/02 04:57:52;;;;;;;16.70;6.60;;;6.90;99.90;;;;;;5062027;28;20069;-85
2024/02/02 05:00:17;;;;;;;15.82;6.32;;;6.90;99.90;;;;;;5078631;28;20494;-85
2024/02/02 05:02:43;;;;;;;15.40;6.65;;;6.90;99.90;;;;;;5062281;28;20032;-85
2024/02/02 05:05:09;;;;;;;15.50;6.53;;;6.90;99.90;;;;;;5062781;28;20525;-84
2024/02/02 05:07:36;;;;;;;16.08;6.35;;;6.90;99.90;;;;;;5062667;28;20054;-84
2024/02/02 05:10:05;;;;;;;12.98;5.57;;;6.90;99.90;;;;;;5081213;28;20042;-85
2024/02/02 05:12:35;;;;;;;16.65;6.03;;;6.90;99.90;;;;;;5101557;28;20031;-83
2024/02/02 05:15:01;;;;;;;15.00;5.95;;;6.90;99.90;;;;;;5085242;28;20020;-84
2024/02/02 05:17:27;;;;;;;13.93;6.13;;;6.80;99.90;;;;;;5085439;28;20018;-84
2024/02/02 05:19:55;;;;;;;16.73;6.43;;;6.90;99.90;;;;;;5098838;28;20070;-84
2024/02/02 05:22:21;;;;;;;18.05;6.00;;;6.90;99.90;;;;;;5079838;28;20050;-85
2024/02/02 05:24:48;;;;;;;17.63;5.75;;;6.90;99.90;;;;;;5051897;28;20020;-85
2024/02/02 05:27:15;;;;;;;18.30;6.45;;;6.90;99.90;;;;;;5061120;28;20028;-84
2024/02/02 05:29:44;;;;;;;19.73;6.47;;;6.80;99.90;;;;;;5060996;28;20549;-84
2024/02/02 05:32:10;;;;;;;15.93;6.53;;;6.80;99.90;;;;;;5061135;28;20121;-86
2024/02/02 05:34:35;;;;;;;16.35;6.10;;;6.70;99.90;;;;;;5061474;28;20472;-84
2024/02/02 05:37:01;;;;;;;13.93;5.88;;;6.80;99.90;;;;;;5095882;28;20051;-84
2024/02/02 05:39:27;;;;;;;17.02;6.47;;;6.70;99.90;;;;;;5044360;28;20035;-84
2024/02/02 05:41:55;;;;;;;14.00;6.07;;;6.70;99.90;;;;;;5061160;28;20024;-86
2024/02/02 05:44:20;;;;;;;18.50;6.03;;;6.70;99.90;;;;;;5044952;28;20020;-85
2024/02/02 05:46:46;;;;;;;16.58;6.25;;;6.70;99.90;;;;;;5044462;28;20521;-86
2024/02/02 05:49:12;;;;;;;18.27;5.90;;;6.70;99.90;;;;;;5077995;28;20037;-87
2024/02/02 05:51:37;;;;;;;13.52;5.45;;;6.70;99.90;;;;;;5061193;28;20380;-87
2024/02/02 05:54:03;;;;;;;13.02;5.32;;;6.70;99.90;;;;;;5061192;28;20035;-87
2024/02/02 05:56:29;;;;;;;16.83;5.53;;;6.70;99.90;;;;;;5095159;28;20028;-85
2024/02/02 05:58:54;;;;;;;15.40;5.47;;;6.70;99.90;;;;;;5044166;28;20031;-85
2024/02/02 06:01:20;;;;;;;12.60;4.95;;;6.70;99.90;;;;;;5044152;28;20032;-85
2024/02/02 06:03:46;;;;;;;18.13;5.80;;;6.70;99.90;;;;;;5043963;28;20024;-84
2024/02/02 06:06:11;;;;;;;15.18;5.75;;;6.80;99.90;;;;;;5062278;28;20051;-85
2024/02/02 06:08:37;;;;;;;12.90;5.43;;;6.70;99.90;;;;;;5048023;28;20115;-85
2024/02/02 06:11:03;;;;;;;16.90;5.72;;;6.70;99.90;;;;;;5045574;28;20032;-85
2024/02/02 06:13:29;;;;;;;14.65;5.47;;;6.70;99.90;;;;;;5079828;28;20077;-84
2024/02/02 06:15:55;;;;;;;12.50;5.15;;;6.70;99.90;;;;;;5045177;28;20028;-83
2024/02/02 06:18:21;;;;;;;11.70;5.05;;;6.70;99.90;;;;;;5060947;28;20495;-83
2024/02/02 06:20:47;;;;;;;18.27;5.15;;;6.70;99.90;;;;;;5046168;28;20069;-84
2024/02/02 06:23:12;;;;;;;17.52;5.53;;;6.70;99.90;;;;;;5046055;28;20082;-84
2024/02/02 06:25:38;;;;;;;17.55;4.95;;;6.70;99.90;;;;;;5062383;28;20028;-85
2024/02/02 06:28:04;;;;;;;15.73;5.18;;;6.70;99.90;;;;;;5062183;28;20173;-85
2024/02/02 06:30:30;;;;;;;13.32;5.13;;;6.70;99.90;;;;;;5077075;28;20044;-84
2024/02/02 06:33:02;;;;;;;14.48;5.00;;;6.70;99.90;;;;;;5044072;28;20028;-84
2024/02/02 06:35:29;;;;;;;16.42;5.30;;;6.70;99.90;;;;;;5076887;28;20460;-84
2024/02/02 06:37:55;;;;;;;12.93;4.90;;;6.70;99.90;;;;;;5077821;28;20078;-84
2024/02/02 06:40:21;;;;;;;15.25;4.68;;;6.80;99.90;;;;;;5092143;28;20012;-84
2024/02/02 06:42:47;;;;;;;13.70;5.20;;;6.80;99.90;;;;;;5080187;28;20048;-85
2024/02/02 06:45:12;;;;;;;13.60;4.90;;;6.70;99.90;;;;;;5095876;28;20057;-83
2024/02/02 06:47:38;;;;;;;15.05;4.43;;;6.80;99.90;;;;;;5069247;28;20415;-83
2024/02/02 06:50:05;;;;;;;15.25;5.30;;;6.80;99.90;;;;;;5043816;28;20395;-84
2024/02/02 06:52:31;;;;;;;14.50;4.68;;;6.80;99.90;;;;;;5059409;28;20467;-85
2024/02/02 06:54:57;;;;;;;14.85;4.97;;;6.80;99.90;;;;;;5076257;28;20031;-83
2024/02/02 06:57:25;;;;;;;11.70;4.65;;;6.80;99.90;;;;;;5060149;28;20391;-84
2024/02/02 06:59:51;;;;;;;12.15;4.60;;;6.70;99.90;;;;;;5059642;28;20050;-83
2024/02/02 07:02:21;;;;;;;12.25;5.20;;;6.70;99.90;;;;;;5059175;28;20089;-84
2024/02/02 07:04:47;;;;;;;15.98;5.28;;;6.70;99.90;;;;;;5059346;28;20368;-84
2024/02/02 07:07:14;;;;;;;12.38;4.90;;;6.70;99.90;;;;;;5059119;28;20093;-84
2024/02/02 07:09:42;;;;;;;20.48;4.75;;;6.70;99.90;;;;;;5059545;28;20468;-84
2024/02/02 07:12:09;;;;;;;17.40;5.28;;;6.70;99.90;;;;;;5076114;28;20021;-85
2024/02/02 07:14:35;;;;;;;15.77;4.88;;;6.70;99.90;;;;;;5094187;28;20031;-85
2024/02/02 07:17:01;;;;;;;15.13;4.70;;;6.70;99.90;;;;;;5075984;28;20028;-85
2024/02/02 07:19:39;;;;;;;12.95;5.10;;;6.80;99.90;;;;;;5075971;28;20106;-85
2024/02/02 07:22:24;;;;;;;16.73;4.82;;;6.80;99.90;;;;;;5094310;28;20040;-86
2024/02/02 07:24:52;;;;;;;17.90;5.15;;;6.80;99.90;;;;;;5094425;28;20021;-84
2024/02/02 07:27:58;;;;;;;13.80;4.78;;;6.80;99.90;;;;;;5063107;28;20119;-85
2024/02/02 07:30:47;;;;;;;17.77;5.43;;;6.80;99.90;;;;;;5080766;28;20020;-84
2024/02/02 07:33:28;;;;;;;14.23;4.82;;;6.80;99.90;;;;;;5078637;28;20059;-85
2024/02/02 07:35:59;;;;;;;14.02;4.43;;;6.80;99.90;;;;;;5077945;28;20032;-85
2024/02/02 07:38:55;;;;;;;15.30;5.22;;;6.80;99.90;;;;;;5061839;28;20044;-86
2024/02/02 07:41:24;;;;;;;14.40;5.38;;;6.80;99.90;;;;;;5077629;28;20028;-86
2024/02/02 07:43:59;;;;;;;23.23;5.95;;;6.90;99.90;;;;;;5076910;28;20032;-85
2024/02/02 07:46:25;;;;;;;17.88;6.32;;;6.90;99.90;;;;;;5077016;28;20028;-85
2024/02/02 07:48:53;;;;;;;17.90;5.57;;;6.90;99.90;;;;;;5077319;28;20050;-83
2024/02/02 07:51:19;;;;;;;17.88;6.57;;;6.90;99.90;;;;;;5077087;28;20024;-85
2024/02/02 07:53:45;;;;;;;23.17;6.65;;;6.90;99.90;;;;;;5060037;28;20040;-84
2024/02/02 07:56:12;;;;;;;15.27;6.35;;;6.90;99.90;;;;;;5061575;28;20226;-84
2024/02/02 07:58:39;;;;;;;15.35;6.25;;;6.90;99.90;;;;;;5081980;28;20027;-84
2024/02/02 08:01:07;;;;;;;18.02;7.22;;;7.00;99.90;;;;;;5065910;28;20363;-84
2024/02/02 08:03:34;;;;;;;18.58;6.65;;;7.00;99.90;;;;;;5096842;28;20098;-84
2024/02/02 08:05:59;;;;;;;17.27;7.22;;;7.00;99.90;;;;;;5070260;28;20038;-83
2024/02/02 08:08:25;;;;;;;22.20;7.72;;;7.00;99.90;;;;;;5102559;28;20024;-83
2024/02/02 08:10:51;;;;;;;17.73;8.10;;;7.00;99.90;;;;;;5077130;28;20028;-84
2024/02/02 08:13:18;;;;;;;22.83;8.73;;;7.00;99.90;;;;;;5047798;28;20028;-85
2024/02/02 08:15:44;;;;;;;22.85;8.43;;;7.10;99.90;;;;;;5064007;28;20063;-85
2024/02/02 08:18:10;;;;;;;20.45;8.27;;;7.10;99.90;;;;;;5080014;28;20055;-83
2024/02/02 08:20:37;;;;;;;24.17;7.97;;;7.10;99.90;;;;;;5063079;28;20025;-83
2024/02/02 08:23:06;;;;;;;19.15;7.75;;;7.20;99.90;;;;;;5077459;22;20019;-83
2024/02/02 08:25:35;;;;;;;20.02;7.80;;;7.20;99.90;;;;;;5059902;28;20124;-83
2024/02/02 08:28:01;;;;;;;21.17;8.55;;;7.20;99.90;;;;;;5016708;28;20048;-83
2024/02/02 08:30:27;;;;;;;17.30;7.95;;;7.30;99.90;;;;;;5040378;28;20033;-84
2024/02/02 08:32:53;;;;;;;23.95;9.13;;;7.30;99.90;;;;;;5023864;28;20102;-84
2024/02/02 08:35:26;;;;;;;24.45;8.45;;;7.30;99.90;;;;;;5040101;28;20037;-84
2024/02/02 08:37:56;;;;;;;24.15;8.82;;;7.40;99.90;;;;;;5046986;28;20452;-84
2024/02/02 08:40:43;;;;;;;22.08;8.32;;;7.40;99.90;;;;;;5057359;28;20457;-84
2024/02/02 08:43:22;;;;;;;20.45;8.10;;;7.40;99.90;;;;;;5039562;28;20033;-84
2024/02/02 08:46:10;;;;;;;25.63;8.82;;;7.40;99.90;;;;;;5040360;28;20025;-84
2024/02/02 08:48:37;;;;;;;18.08;8.07;;;7.40;99.90;;;;;;5057595;28;20065;-83
2024/02/02 08:51:21;;;;;;;21.35;7.35;;;7.50;99.90;;;;;;5051874;28;20469;-84
2024/02/02 08:53:48;;;;;;;19.77;7.53;;;7.50;99.90;;;;;;5044042;28;20025;-85
2024/02/02 08:56:15;;;;;;;19.48;7.78;;;7.50;99.90;;;;;;5035026;28;20031;-85
2024/02/02 08:58:41;;;;;;;19.58;7.25;;;7.50;99.90;;;;;;5036449;28;20033;-84
2024/02/02 09:01:41;;;;;;;18.35;6.57;;;7.50;99.90;;;;;;5058295;28;20481;-84
2024/02/02 09:04:25;;;;;;;22.20;7.97;;;7.60;99.90;;;;;;5053090;28;20033;-84
2024/02/02 09:06:50;;;;;;;19.88;7.75;;;7.60;99.90;;;;;;5060221;28;20024;-84
2024/02/02 09:09:20;;;;;;;18.52;7.88;;;7.60;99.90;;;;;;5042063;28;20384;-84
2024/02/02 09:11:48;;;;;;;18.27;7.85;;;7.60;99.90;;;;;;5076159;28;20020;-84
2024/02/02 09:14:17;;;;;;;17.13;7.45;;;7.70;99.90;;;;;;5041757;28;20040;-85
2024/02/02 09:16:49;;;;;;;19.42;7.35;;;7.70;99.90;;;;;;5059022;28;20029;-85
2024/02/02 09:19:27;;;;;;;20.85;7.60;;;7.70;99.90;;;;;;5076000;28;20021;-84
2024/02/02 09:21:56;;;;;;;17.35;7.47;;;7.80;99.90;;;;;;5061306;28;20024;-85
2024/02/02 09:24:39;;;;;;;20.63;7.88;;;7.80;99.90;;;;;;5071855;28;20048;-85
2024/02/02 09:27:09;;;;;;;25.67;9.13;;;7.80;99.90;;;;;;5076729;28;20021;-85
2024/02/02 09:29:43;;;;;;;15.80;7.88;;;7.90;99.90;;;;;;5096468;28;20013;-85
2024/02/02 09:32:09;;;;;;;22.45;8.57;;;7.90;99.90;;;;;;5098351;28;20036;-85
2024/02/02 09:34:35;;;;;;;25.13;8.98;;;7.90;99.90;;;;;;5063774;28;20024;-86
2024/02/02 09:37:01;;;;;;;25.98;9.07;;;7.90;99.90;;;;;;5056590;28;20124;-86
2024/02/02 09:39:55;;;;;;;18.90;9.43;;;8.00;99.90;;;;;;5041949;28;20029;-84
2024/02/02 09:42:36;;;;;;;22.77;9.45;;;8.00;99.90;;;;;;5076314;28;20021;-84
2024/02/02 09:45:11;;;;;;;24.65;9.93;;;8.00;99.90;;;;;;5058183;28;20032;-84
2024/02/02 09:47:53;;;;;;;22.20;9.13;;;8.00;99.90;;;;;;5057622;28;20044;-85
2024/02/02 09:50:27;;;;;;;23.50;9.55;;;8.00;99.90;;;;;;5075399;28;20028;-85
2024/02/02 09:53:17;;;;;;;27.15;10.18;;;8.00;99.90;;;;;;5075400;28;20063;-85
2024/02/02 09:56:28;;;;;;;21.15;9.82;;;8.00;99.90;;;;;;5075321;28;20029;-85
2024/02/02 09:59:03;;;;;;;22.63;10.38;;;8.00;99.90;;;;;;5057948;28;20032;-84
2024/02/02 10:02:03;;;;;;;25.90;9.73;;;8.10;99.90;;;;;;5058647;28;20388;-85
2024/02/02 10:04:51;;;;;;;21.48;9.93;;;8.10;99.90;;;;;;5058127;28;20105;-85
2024/02/02 10:08:14;;;;;;;22.17;10.80;;;8.20;99.90;;;;;;5058369;28;20060;-84
2024/02/02 10:10:53;;;;;;;26.45;10.65;;;8.20;99.90;;;;;;5015285;28;20048;-85
2024/02/02 10:13:27;;;;;;;30.17;11.00;;;8.20;99.90;;;;;;5014485;28;20037;-86
2024/02/02 10:16:28;;;;;;;19.55;10.85;;;8.30;99.90;;;;;;5041906;28;20043;-85
2024/02/02 10:19:12;;;;;;;23.92;11.43;;;8.30;99.90;;;;;;5063189;28;20067;-86
2024/02/02 10:22:12;;;;;;;23.73;11.10;;;8.30;99.90;;;;;;5061971;28;20063;-85
2024/02/02 10:25:03;;;;;;;24.02;11.57;;;8.30;99.90;;;;;;5060172;28;20052;-85
2024/02/02 10:27:37;;;;;;;28.05;10.73;;;8.40;99.90;;;;;;5060077;28;20062;-85
2024/02/02 10:30:17;;;;;;;20.50;10.20;;;8.30;99.90;;;;;;5058195;28;20032;-84
2024/02/02 10:33:01;;;;;;;19.27;9.98;;;8.40;99.90;;;;;;5056688;28;20017;-84
2024/02/02 10:36:17;;;;;;;24.50;11.32;;;8.50;99.90;;;;;;5057158;28;20028;-84
2024/02/02 10:39:09;;;;;;;20.58;10.13;;;8.50;99.90;;;;;;5070968;28;20041;-84
2024/02/02 10:41:41;;;;;;;18.35;9.77;;;8.50;99.90;;;;;;5057645;28;20037;-84
2024/02/02 10:44:22;;;;;;;21.10;10.32;;;8.60;99.90;;;;;;5057268;28;20024;-84
2024/02/02 10:47:03;;;;;;;21.20;9.52;;;8.50;99.90;;;;;;5057690;28;20036;-84
2024/02/02 10:50:08;;;;;;;19.23;10.25;;;8.60;99.90;;;;;;5057455;28;20036;-84
2024/02/02 10:53:00;;;;;;;23.83;10.00;;;8.60;99.90;;;;;;5058121;28;20025;-83
2024/02/02 10:55:54;;;;;;;19.83;9.70;;;8.70;99.90;;;;;;5070287;28;20031;-83
2024/02/02 10:58:23;;;;;;;24.23;10.48;;;8.60;99.90;;;;;;5080090;28;20029;-83
2024/02/02 11:01:04;;;;;;;19.50;9.70;;;8.70;99.90;;;;;;5097530;28;20024;-84
2024/02/02 11:03:36;;;;;;;24.10;9.90;;;8.70;99.90;;;;;;5073308;28;20051;-84
2024/02/02 11:06:24;;;;;;;20.13;9.90;;;8.70;99.90;;;;;;5040648;28;20028;-84
2024/02/02 11:09:18;;;;;;;18.63;9.60;;;8.80;99.90;;;;;;5056318;28;20025;-84
2024/02/02 11:11:46;;;;;;;23.65;9.90;;;8.80;99.90;;;;;;5056869;28;20028;-83
2024/02/02 11:14:18;;;;;;;16.95;10.07;;;8.80;99.90;;;;;;5056967;28;20071;-84
2024/02/02 11:16:57;;;;;;;30.58;13.07;;;8.80;99.90;;;;;;5077032;28;20029;-84
2024/02/02 11:19:43;;;;;;;18.77;10.95;;;8.90;99.90;;;;;;5056284;28;20021;-84
2024/02/02 11:22:23;;;;;;;21.42;11.15;;;8.90;99.90;;;;;;5076312;28;20047;-85
2024/02/02 11:25:06;;;;;;;19.05;10.32;;;9.00;99.90;;;;;;5053985;28;20496;-86
2024/02/02 11:27:53;;;;;;;23.33;10.57;;;9.00;99.90;;;;;;5037215;28;20473;-84
2024/02/02 11:30:46;;;;;;;22.55;10.88;;;9.00;99.90;;;;;;5057265;28;20033;-86
2024/02/02 11:33:34;;;;;;;26.88;12.60;;;9.00;99.90;;;;;;5033761;28;20495;-86
2024/02/02 11:36:17;;;;;;;23.95;12.70;;;9.00;99.90;;;;;;5041162;28;20032;-84
2024/02/02 11:39:25;;;;;;;24.85;11.50;;;8.90;99.90;;;;;;5057263;28;20067;-85
2024/02/02 11:41:52;;;;;;;22.67;11.60;;;8.90;99.90;;;;;;5020044;28;20061;-85
2024/02/02 11:44:19;;;;;;;22.92;12.10;;;9.00;99.90;;;;;;5056347;28;20048;-83
2024/02/02 11:46:46;;;;;;;19.92;10.05;;;9.00;99.90;;;;;;5061622;28;20035;-83
2024/02/02 11:49:21;;;;;;;25.42;11.57;;;9.10;99.90;;;;;;5044342;28;20036;-83
2024/02/02 11:51:58;;;;;;;23.80;11.18;;;9.10;99.90;;;;;;5060771;28;20032;-83
2024/02/02 11:54:24;;;;;;;23.52;11.52;;;9.20;99.90;;;;;;5061479;28;20016;-83
2024/02/02 11:56:51;;;;;;;19.40;11.02;;;9.20;99.90;;;;;;5078626;28;20116;-84
2024/02/02 11:59:32;;;;;;;27.60;12.65;;;9.30;99.90;;;;;;5059669;28;20467;-84
2024/02/02 12:02:16;;;;;;;;;;;9.30;99.90;;;;;;5061419;28;20029;-83
2024/02/02 12:04:44;;;;;;;23.17;11.10;;;9.20;99.90;;;;;;5077593;28;19909;-82
2024/02/02 12:07:19;;;;;;;25.08;11.07;;;9.20;99.90;;;;;;5041723;28;20041;-83
2024/02/02 12:09:51;;;;;;;22.27;11.00;;;9.20;99.90;;;;;;5040336;28;20543;-83
2024/02/02 12:12:31;;;;;;;20.75;10.32;;;9.20;99.90;;;;;;5074536;28;20028;-82
2024/02/02 12:14:57;;;;;;;23.52;11.15;;;9.20;99.90;;;;;;5047376;28;20473;-83
2024/02/02 12:17:23;;;;;;;22.67;11.15;;;9.20;99.90;;;;;;5058124;28;20029;-83
2024/02/02 12:19:49;;;;;;;25.25;11.40;;;9.20;99.90;;;;;;5058327;28;20037;-83
2024/02/02 12:22:15;;;;;;;22.48;10.50;;;9.20;99.90;;;;;;5047873;28;20045;-83
2024/02/02 12:24:41;;;;;;;24.45;11.23;;;9.20;99.90;;;;;;5059358;28;20089;-82
2024/02/02 12:27:10;;;;;;;21.10;11.90;;;9.20;99.90;;;;;;5059871;28;20029;-83
2024/02/02 12:29:36;;;;;;;22.38;11.70;;;9.20;99.90;;;;;;5053618;28;20037;-82
2024/02/02 12:32:04;;;;;;;23.95;11.70;;;9.20;99.90;;;;;;5067998;28;20091;-83
2024/02/02 12:34:29;;;;;;;26.23;12.95;;;9.20;99.90;;;;;;5039840;28;20026;-83
2024/02/02 12:36:58;;;;;;;24.98;11.35;;;9.10;99.90;;;;;;5036258;28;20558;-85
2024/02/02 12:39:30;;;;;;;23.50;12.98;;;9.20;99.90;;;;;;5005179;28;20029;-83
2024/02/02 12:41:56;;;;;;;27.20;13.88;;;9.20;99.90;;;;;;5039036;28;20032;-84
2024/02/02 12:44:26;;;;;;;29.70;14.13;;;9.20;99.90;;;;;;5027562;28;20040;-82
2024/02/02 12:46:52;;;;;;;26.02;13.02;;;9.10;99.90;;;;;;5037224;28;20029;-82
2024/02/02 12:49:19;;;;;;;30.10;14.43;;;9.10;99.90;;;;;;5037069;28;20022;-83
2024/02/02 12:51:45;;;;;;;33.53;15.02;;;9.20;99.90;;;;;;5020442;28;20044;-83
2024/02/02 12:54:10;;;;;;;26.55;14.00;;;9.20;99.90;;;;;;5050366;28;20025;-83
2024/02/02 12:56:37;;;;;;;24.02;14.05;;;9.20;99.90;;;;;;5046737;28;20021;-84
2024/02/02 12:59:06;;;;;;;29.60;15.32;;;9.20;99.90;;;;;;5036911;28;20037;-83
2024/02/02 13:01:35;;;;;;;29.70;14.60;;;9.20;99.90;;;;;;5067616;28;20104;-83